Time;durP1;ratioP1;P1;durP2;ratioP2;P2;SDS_P1;SDS_P2;PMS_P1;PMS_P2;Temp;Humidity;BMP_temperature;BMP_pressure;BME280_temperature;BME280_humidity;BME280_pressure;Samples;Min_cycle;Max_cycle;Signal;HPM_P1;HPM_P2
2023/03/04 00:00:58;;;;;;;;;;;17.90;44.00;;;;;;10373008;28;1897;-75
2023/03/04 00:05:53;;;;;;;;;;;17.90;44.10;;;;;;10373512;28;834;-75
2023/03/04 00:10:48;;;;;;;;;;;17.80;44.10;;;;;;10373336;28;842;-75
2023/03/04 00:15:44;;;;;;;;;;;17.80;43.90;;;;;;10373186;28;847;-75
2023/03/04 00:20:39;;;;;;;;;;;17.80;44.00;;;;;;10372873;28;1947;-75
2023/03/04 00:25:34;;;;;;;;;;;17.80;44.10;;;;;;10371611;28;905;-75
2023/03/04 00:30:30;;;;;;;;;;;17.80;44.10;;;;;;10371856;28;885;-75
2023/03/04 00:35:25;;;;;;;;;;;17.80;44.10;;;;;;10371807;28;882;-75
2023/03/04 00:40:20;;;;;;;;;;;17.70;44.00;;;;;;10370904;28;1905;-74
2023/03/04 00:45:16;;;;;;;;;;;17.80;44.10;;;;;;10371974;28;949;-75
2023/03/04 00:50:11;;;;;;;;;;;17.70;44.10;;;;;;10371791;28;857;-74
2023/03/04 00:55:07;;;;;;;;;;;17.70;44.10;;;;;;10370984;28;873;-75
2023/03/04 01:00:02;;;;;;;;;;;17.70;44.10;;;;;;10370752;28;1902;-74
2023/03/04 01:04:57;;;;;;;;;;;17.70;44.10;;;;;;10370353;28;893;-75
2023/03/04 01:09:53;;;;;;;;;;;17.70;44.10;;;;;;10371208;28;902;-75
2023/03/04 01:14:48;;;;;;;;;;;17.70;44.10;;;;;;10370217;28;854;-74
2023/03/04 01:19:43;;;;;;;;;;;17.70;44.10;;;;;;10369985;28;1967;-75
2023/03/04 01:24:39;;;;;;;;;;;17.70;44.10;;;;;;10369826;28;775;-74
2023/03/04 01:29:34;;;;;;;;;;;17.70;44.00;;;;;;10370244;28;877;-75
2023/03/04 01:34:30;;;;;;;;;;;17.70;44.10;;;;;;10369684;28;957;-75
2023/03/04 01:39:25;;;;;;;;;;;17.70;44.00;;;;;;10369747;28;1132;-75
2023/03/04 01:44:20;;;;;;;;;;;17.70;44.00;;;;;;10369800;28;1910;-75
2023/03/04 01:49:16;;;;;;;;;;;17.70;44.00;;;;;;10369469;28;821;-75
2023/03/04 01:54:11;;;;;;;;;;;17.60;44.00;;;;;;10368687;28;873;-75
2023/03/04 01:59:06;;;;;;;;;;;17.70;44.00;;;;;;10369093;28;877;-75
2023/03/04 02:04:02;;;;;;;;;;;17.70;44.00;;;;;;10368858;28;1950;-74
2023/03/04 02:08:57;;;;;;;;;;;17.70;44.00;;;;;;10367975;28;1123;-75
2023/03/04 02:13:52;;;;;;;;;;;17.70;44.00;;;;;;10367907;28;870;-75
2023/03/04 02:18:48;;;;;;;;;;;17.70;44.00;;;;;;10367834;28;769;-75
2023/03/04 02:23:43;;;;;;;;;;;17.60;43.90;;;;;;10368286;28;1957;-75
2023/03/04 02:28:38;;;;;;;;;;;17.70;44.00;;;;;;10366844;28;1083;-75
2023/03/04 02:33:34;;;;;;;;;;;17.60;43.90;;;;;;10367897;28;822;-74
2023/03/04 02:38:29;;;;;;;;;;;17.60;44.00;;;;;;10367107;28;856;-75
2023/03/04 02:43:25;;;;;;;;;;;17.60;44.00;;;;;;10366894;28;1918;-75
2023/03/04 02:48:20;;;;;;;;;;;17.60;44.10;;;;;;10366210;28;1150;-74
2023/03/04 02:53:15;;;;;;;;;;;17.60;44.00;;;;;;10366673;28;873;-75
2023/03/04 02:58:11;;;;;;;;;;;17.60;44.00;;;;;;10366475;28;1027;-75
2023/03/04 03:03:07;;;;;;;;;;;17.60;44.10;;;;;;10365705;28;1906;-75
2023/03/04 03:08:02;;;;;;;;;;;17.60;44.00;;;;;;10366368;28;865;-75
2023/03/04 03:12:58;;;;;;;;;;;17.60;44.00;;;;;;10366862;28;881;-75
2023/03/04 03:17:53;;;;;;;;;;;17.60;44.00;;;;;;10365584;28;799;-74
2023/03/04 03:22:49;;;;;;;;;;;17.50;44.10;;;;;;10366055;28;1902;-75
2023/03/04 03:27:44;;;;;;;;;;;17.50;44.10;;;;;;10372688;28;872;-75
2023/03/04 03:32:39;;;;;;;;;;;17.50;44.10;;;;;;10374948;28;860;-75
2023/03/04 03:37:35;;;;;;;;;;;17.50;44.00;;;;;;10374984;28;869;-75
2023/03/04 03:42:30;;;;;;;;;;;17.50;44.10;;;;;;10373516;28;1905;-74
2023/03/04 03:47:25;;;;;;;;;;;17.50;44.00;;;;;;10373749;28;893;-75
2023/03/04 03:52:21;;;;;;;;;;;17.50;44.00;;;;;;10373528;28;768;-75
2023/03/04 03:57:16;;;;;;;;;;;17.60;44.00;;;;;;10373921;28;864;-75
2023/03/04 04:02:11;;;;;;;;;;;17.50;43.90;;;;;;10373350;28;1898;-74
2023/03/04 04:07:07;;;;;;;;;;;17.60;44.00;;;;;;10372952;28;793;-75
2023/03/04 04:12:02;;;;;;;;;;;17.60;44.00;;;;;;10373476;28;845;-75
2023/03/04 04:16:57;;;;;;;;;;;17.60;44.00;;;;;;10372566;28;929;-75
2023/03/04 04:21:53;;;;;;;;;;;17.60;44.00;;;;;;10372313;28;1953;-75
2023/03/04 04:26:48;;;;;;;;;;;17.60;44.00;;;;;;10371523;28;862;-75
2023/03/04 04:31:44;;;;;;;;;;;17.60;43.90;;;;;;10372004;28;836;-75
2023/03/04 04:36:39;;;;;;;;;;;17.60;44.00;;;;;;10370525;28;894;-75
2023/03/04 04:41:34;;;;;;;;;;;17.60;43.90;;;;;;10371624;28;1910;-74
2023/03/04 04:46:30;;;;;;;;;;;17.60;43.80;;;;;;10371416;28;943;-75
2023/03/04 04:51:25;;;;;;;;;;;17.60;43.80;;;;;;10371376;28;964;-75
2023/03/04 04:56:20;;;;;;;;;;;17.60;43.90;;;;;;10372317;28;862;-75
2023/03/04 05:01:16;;;;;;;;;;;17.60;43.90;;;;;;10370803;28;1901;-75
2023/03/04 05:06:11;;;;;;;;;;;17.60;43.90;;;;;;10370683;28;944;-75
2023/03/04 05:11:07;;;;;;;;;;;17.70;43.80;;;;;;10370039;28;1050;-75
2023/03/04 05:16:02;;;;;;;;;;;17.70;43.80;;;;;;10369688;28;1595;-75
2023/03/04 05:20:57;;;;;;;;;;;17.70;43.70;;;;;;10370020;28;1964;-75
2023/03/04 05:25:53;;;;;;;;;;;17.70;43.70;;;;;;10369860;28;757;-75
2023/03/04 05:30:48;;;;;;;;;;;17.70;43.60;;;;;;10369694;28;863;-75
2023/03/04 05:35:43;;;;;;;;;;;17.70;43.70;;;;;;10368903;28;919;-75
2023/03/04 05:40:39;;;;;;;;;;;17.70;43.70;;;;;;10368358;28;1964;-75
2023/03/04 05:45:34;;;;;;;;;;;17.70;43.70;;;;;;10369894;28;847;-75
2023/03/04 05:50:30;;;;;;;;;;;17.70;43.70;;;;;;10368585;28;767;-78
2023/03/04 05:55:26;;;;;;;;;;;17.80;43.80;;;;;;10368786;28;775;-79
2023/03/04 06:00:21;;;;;;;;;;;17.80;43.80;;;;;;10369080;28;1976;-78
2023/03/04 06:05:17;;;;;;;;;;;17.70;43.70;;;;;;10368314;28;861;-79
2023/03/04 06:10:12;;;;;;;;;;;17.80;43.80;;;;;;10368116;28;818;-78
2023/03/04 06:15:09;;;;;;;;;;;17.70;43.80;;;;;;10367954;28;871;-80
2023/03/04 06:20:05;;;;;;;;;;;17.70;43.80;;;;;;10367711;28;1965;-78
2023/03/04 06:25:01;;;;;;;;;;;17.70;43.80;;;;;;10367608;28;1054;-75
2023/03/04 06:29:56;;;;;;;;;;;17.80;43.90;;;;;;10367456;28;871;-78
2023/03/04 06:34:51;;;;;;;;;;;17.80;43.80;;;;;;10367908;28;958;-78
2023/03/04 06:39:47;;;;;;;;;;;17.80;43.80;;;;;;10366780;28;1155;-78
2023/03/04 06:44:42;;;;;;;;;;;17.80;44.10;;;;;;10367820;28;1898;-78
2023/03/04 06:49:38;;;;;;;;;;;17.80;44.10;;;;;;10367028;28;926;-78
2023/03/04 06:54:33;;;;;;;;;;;17.90;44.10;;;;;;10367320;28;767;-78
2023/03/04 06:59:28;;;;;;;;;;;17.90;44.70;;;;;;10366446;28;901;-77
2023/03/04 07:04:24;;;;;;;;;;;17.80;44.20;;;;;;10366493;28;1898;-80
2023/03/04 07:09:19;;;;;;;;;;;17.80;44.20;;;;;;10367141;28;849;-78
2023/03/04 07:14:14;;;;;;;;;;;17.70;44.10;;;;;;10366302;28;875;-77
2023/03/04 07:19:10;;;;;;;;;;;17.70;44.30;;;;;;10365604;28;936;-77
2023/03/04 07:24:05;;;;;;;;;;;17.70;44.40;;;;;;10366668;28;1909;-77
2023/03/04 07:29:00;;;;;;;;;;;17.70;44.30;;;;;;10365916;28;880;-77
2023/03/04 07:33:56;;;;;;;;;;;17.70;44.20;;;;;;10365864;28;863;-75
2023/03/04 07:38:53;;;;;;;;;;;17.70;44.30;;;;;;10365835;28;872;-77
2023/03/04 07:43:49;;;;;;;;;;;17.80;44.30;;;;;;10366724;28;1914;-74
2023/03/04 07:48:44;;;;;;;;;;;17.80;44.20;;;;;;10366264;28;842;-77
2023/03/04 07:53:39;;;;;;;;;;;17.80;44.80;;;;;;10365517;28;867;-77
2023/03/04 07:58:35;;;;;;;;;;;17.80;44.20;;;;;;10365486;28;925;-77
2023/03/04 08:03:30;;;;;;;;;;;17.90;44.10;;;;;;10365235;28;1901;-74
2023/03/04 08:08:25;;;;;;;;;;;17.90;44.20;;;;;;10365252;28;897;-77
2023/03/04 08:13:21;;;;;;;;;;;17.90;44.30;;;;;;10371473;28;1011;-76
2023/03/04 08:18:16;;;;;;;;;;;17.90;44.40;;;;;;10373177;28;903;-76
2023/03/04 08:23:11;;;;;;;;;;;17.90;44.40;;;;;;10372513;28;1959;-76
2023/03/04 08:28:07;;;;;;;;;;;17.90;44.40;;;;;;10372124;28;881;-76
2023/03/04 08:33:02;;;;;;;;;;;17.90;44.60;;;;;;10371945;28;961;-76
2023/03/04 08:37:58;;;;;;;;;;;17.90;44.50;;;;;;10373051;28;802;-76
2023/03/04 08:42:53;;;;;;;;;;;18.00;44.80;;;;;;10372737;28;1910;-75
2023/03/04 08:47:48;;;;;;;;;;;17.90;44.70;;;;;;10372030;28;924;-76
2023/03/04 08:52:44;;;;;;;;;;;18.00;44.80;;;;;;10371757;28;1532;-75
2023/03/04 08:57:39;;;;;;;;;;;17.90;44.70;;;;;;10371102;28;969;-75
2023/03/04 09:02:34;;;;;;;;;;;18.00;44.80;;;;;;10371479;28;1913;-76
2023/03/04 09:07:30;;;;;;;;;;;18.00;44.80;;;;;;10370670;28;788;-76
2023/03/04 09:12:25;;;;;;;;;;;17.90;44.80;;;;;;10371102;28;853;-78
2023/03/04 09:17:21;;;;;;;;;;;17.80;44.90;;;;;;10370878;28;759;-75
2023/03/04 09:22:16;;;;;;;;;;;17.80;45.10;;;;;;10369946;28;1965;-75
2023/03/04 09:27:11;;;;;;;;;;;17.80;45.10;;;;;;10369916;28;947;-75
2023/03/04 09:32:07;;;;;;;;;;;17.90;45.20;;;;;;10369676;28;925;-76
2023/03/04 09:37:02;;;;;;;;;;;17.90;45.10;;;;;;10368860;28;850;-76
2023/03/04 09:41:57;;;;;;;;;;;17.80;45.00;;;;;;10369488;28;1910;-76
2023/03/04 09:46:53;;;;;;;;;;;17.90;45.20;;;;;;10369117;28;818;-78
2023/03/04 09:51:48;;;;;;;;;;;17.90;44.90;;;;;;10368406;28;915;-77
2023/03/04 09:56:44;;;;;;;;;;;17.90;45.10;;;;;;10368718;28;958;-77
2023/03/04 10:01:39;;;;;;;;;;;17.90;44.80;;;;;;10368412;28;1913;-76
2023/03/04 10:06:34;;;;;;;;;;;18.00;44.90;;;;;;10368266;28;972;-76
2023/03/04 10:11:30;;;;;;;;;;;18.00;44.80;;;;;;10367563;28;866;-77
2023/03/04 10:16:25;;;;;;;;;;;18.00;44.90;;;;;;10367969;28;764;-76
2023/03/04 10:21:21;;;;;;;;;;;17.90;44.80;;;;;;10368482;28;1976;-73
2023/03/04 10:26:16;;;;;;;;;;;18.00;45.00;;;;;;10366949;28;1122;-77
2023/03/04 10:31:11;;;;;;;;;;;18.00;45.60;;;;;;10367728;28;819;-80
2023/03/04 10:36:07;;;;;;;;;;;17.90;45.10;;;;;;10366500;28;921;-79
2023/03/04 10:41:02;;;;;;;;;;;17.90;45.00;;;;;;10366718;28;1909;-80
2023/03/04 10:45:58;;;;;;;;;;;17.90;44.70;;;;;;10366987;28;827;-80
2023/03/04 10:50:53;;;;;;;;;;;17.90;44.60;;;;;;10367454;28;803;-79
2023/03/04 10:55:48;;;;;;;;;;;17.90;44.60;;;;;;10366748;28;849;-80
2023/03/04 11:00:44;;;;;;;;;;;17.90;44.40;;;;;;10366513;28;1909;-80
2023/03/04 11:05:39;;;;;;;;;;;17.90;44.50;;;;;;10366455;28;799;-79
2023/03/04 11:10:34;;;;;;;;;;;17.90;44.60;;;;;;10367369;28;982;-80
2023/03/04 11:15:30;;;;;;;;;;;17.90;44.40;;;;;;10366261;28;763;-80
2023/03/04 11:20:25;;;;;;;;;;;18.00;44.10;;;;;;10366114;28;1905;-80
2023/03/04 11:25:20;;;;;;;;;;;17.90;44.40;;;;;;10366102;28;752;-80
2023/03/04 11:30:16;;;;;;;;;;;17.90;44.60;;;;;;10366607;28;819;-80
2023/03/04 11:35:11;;;;;;;;;;;17.90;44.20;;;;;;10365894;28;880;-82
2023/03/04 11:40:07;;;;;;;;;;;17.90;44.30;;;;;;10365954;28;1909;-80
2023/03/04 11:45:02;;;;;;;;;;;17.90;44.30;;;;;;10365859;28;838;-80
2023/03/04 11:49:57;;;;;;;;;;;17.90;44.40;;;;;;10374205;28;895;-75
2023/03/04 11:54:53;;;;;;;;;;;17.90;44.50;;;;;;10374156;28;869;-75
2023/03/04 11:59:48;;;;;;;;;;;17.90;44.60;;;;;;10373542;28;973;-76
2023/03/04 12:04:43;;;;;;;;;;;17.90;44.60;;;;;;10373129;28;1967;-75
2023/03/04 12:09:39;;;;;;;;;;;17.90;44.70;;;;;;10372977;28;875;-75
2023/03/04 12:14:35;;;;;;;;;;;18.00;44.80;;;;;;10373795;28;872;-87
2023/03/04 12:19:30;;;;;;;;;;;17.90;45.30;;;;;;10372583;28;895;-89
2023/03/04 12:24:25;;;;;;;;;;;17.80;44.90;;;;;;10372944;28;1890;-89
2023/03/04 12:29:21;;;;;;;;;;;17.70;44.90;;;;;;10372249;28;952;-84
2023/03/04 12:34:17;;;;;;;;;;;17.70;44.90;;;;;;10372023;28;855;-84
2023/03/04 12:39:12;;;;;;;;;;;17.70;44.90;;;;;;10371455;28;1087;-87
2023/03/04 12:44:07;;;;;;;;;;;17.70;44.90;;;;;;10372439;28;1914;-88
2023/03/04 12:49:03;;;;;;;;;;;17.70;45.00;;;;;;10371479;28;872;-89
2023/03/04 12:53:58;;;;;;;;;;;17.70;44.90;;;;;;10371262;28;795;-82
2023/03/04 12:58:53;;;;;;;;;;;17.70;44.90;;;;;;10370632;28;863;-83
2023/03/04 13:03:49;;;;;;;;;;;17.70;44.90;;;;;;10370851;28;1957;-87
2023/03/04 13:08:44;;;;;;;;;;;17.70;44.90;;;;;;10370478;28;946;-80
2023/03/04 13:13:40;;;;;;;;;;;17.70;44.90;;;;;;10371051;28;771;-87
2023/03/04 13:18:35;;;;;;;;;;;17.70;44.90;;;;;;10370756;28;783;-91
2023/03/04 13:23:31;;;;;;;;;;;17.60;44.80;;;;;;10369930;28;2016;-89
2023/03/04 13:28:26;;;;;;;;;;;17.70;44.70;;;;;;10369940;28;792;-92
2023/03/04 13:33:21;;;;;;;;;;;17.70;44.80;;;;;;10369465;28;763;-87
2023/03/04 13:38:17;;;;;;;;;;;17.70;44.80;;;;;;10369311;28;791;-87
2023/03/04 13:43:12;;;;;;;;;;;17.60;44.60;;;;;;10368974;28;1985;-88
2023/03/04 13:48:08;;;;;;;;;;;17.70;44.70;;;;;;10369703;28;826;-89
2023/03/04 13:53:03;;;;;;;;;;;17.70;44.70;;;;;;10368757;28;879;-88
2023/03/04 13:57:58;;;;;;;;;;;17.70;44.50;;;;;;10368624;28;921;-86
2023/03/04 14:02:54;;;;;;;;;;;17.70;44.50;;;;;;10368793;28;1969;-87
2023/03/04 14:07:49;;;;;;;;;;;17.60;44.40;;;;;;10368898;28;872;-84
2023/03/04 14:12:45;;;;;;;;;;;17.70;44.50;;;;;;10368335;28;924;-87
2023/03/04 14:17:40;;;;;;;;;;;17.60;44.40;;;;;;10367896;28;768;-88
2023/03/04 14:22:35;;;;;;;;;;;17.60;44.70;;;;;;10368205;28;1894;-86
2023/03/04 14:27:31;;;;;;;;;;;17.50;44.60;;;;;;10367749;28;847;-91
2023/03/04 14:32:27;;;;;;;;;;;17.50;44.70;;;;;;10367544;28;869;-89
2023/03/04 14:37:22;;;;;;;;;;;17.50;44.70;;;;;;10368546;28;778;-90
2023/03/04 14:42:18;;;;;;;;;;;17.50;44.70;;;;;;10366984;28;1899;-92
2023/03/04 14:47:13;;;;;;;;;;;17.50;44.70;;;;;;10367569;28;908;-90
2023/03/04 14:52:08;;;;;;;;;;;17.50;44.70;;;;;;10367754;28;892;-79
2023/03/04 14:57:04;;;;;;;;;;;17.60;44.60;;;;;;10366361;28;904;-79
2023/03/04 15:01:59;;;;;;;;;;;17.60;44.80;;;;;;10366290;28;1910;-79
2023/03/04 15:06:54;;;;;;;;;;;17.60;44.90;;;;;;10366405;28;843;-79
2023/03/04 15:11:50;;;;;;;;;;;17.60;44.90;;;;;;10366683;28;850;-79
2023/03/04 15:16:45;;;;;;;;;;;17.60;45.00;;;;;;10366064;28;834;-80
2023/03/04 15:21:41;;;;;;;;;;;17.60;44.90;;;;;;10369046;28;1961;-78
2023/03/04 15:26:36;;;;;;;;;;;17.60;44.90;;;;;;10375124;28;862;-79
2023/03/04 15:31:31;;;;;;;;;;;17.60;44.90;;;;;;10374805;28;851;-79
2023/03/04 15:36:27;;;;;;;;;;;17.60;44.90;;;;;;10373459;28;973;-80
2023/03/04 15:41:22;;;;;;;;;;;17.60;44.80;;;;;;10374339;28;1971;-88
2023/03/04 15:46:17;;;;;;;;;;;17.60;44.90;;;;;;10374277;28;810;-79
2023/03/04 15:51:13;;;;;;;;;;;17.60;44.90;;;;;;10373500;28;985;-78
2023/03/04 15:56:08;;;;;;;;;;;17.70;44.70;;;;;;10373308;28;775;-79
2023/03/04 16:01:04;;;;;;;;;;;17.60;44.70;;;;;;10373521;28;1951;-79
2023/03/04 16:05:59;;;;;;;;;;;17.70;44.70;;;;;;10372915;28;775;-79
2023/03/04 16:10:54;;;;;;;;;;;17.60;44.60;;;;;;10373392;28;846;-79
2023/03/04 16:15:50;;;;;;;;;;;17.60;44.60;;;;;;10372735;28;890;-78
2023/03/04 16:20:45;;;;;;;;;;;17.60;44.60;;;;;;10372575;28;1961;-79
2023/03/04 16:25:41;;;;;;;;;;;17.60;44.50;;;;;;10373665;28;884;-79
2023/03/04 16:30:36;;;;;;;;;;;17.60;44.70;;;;;;10372850;28;861;-78
2023/03/04 16:35:33;;;;;;;;;;;17.60;44.60;;;;;;10372306;28;889;-78
2023/03/04 16:40:28;;;;;;;;;;;17.60;44.60;;;;;;10371790;28;1913;-78
2023/03/04 16:45:24;;;;;;;;;;;17.60;44.60;;;;;;10371108;28;902;-79
2023/03/04 16:50:19;;;;;;;;;;;17.60;44.60;;;;;;10371492;28;769;-78
2023/03/04 16:55:14;;;;;;;;;;;17.60;44.40;;;;;;10371868;28;854;-78
2023/03/04 17:00:10;;;;;;;;;;;17.60;44.40;;;;;;10371693;28;836;-85
2023/03/04 17:05:05;;;;;;;;;;;17.60;44.50;;;;;;10371688;28;1963;-79
2023/03/04 17:10:01;;;;;;;;;;;17.60;44.50;;;;;;10371314;28;1051;-79
2023/03/04 17:14:56;;;;;;;;;;;17.60;44.60;;;;;;10370513;28;915;-79
2023/03/04 17:19:52;;;;;;;;;;;17.60;44.60;;;;;;10370295;28;892;-79
2023/03/04 17:24:47;;;;;;;;;;;17.60;44.60;;;;;;10370049;28;1957;-78
2023/03/04 17:29:42;;;;;;;;;;;17.60;44.60;;;;;;10370628;28;886;-79
2023/03/04 17:34:38;;;;;;;;;;;17.60;44.60;;;;;;10369743;28;867;-78
2023/03/04 17:39:33;;;;;;;;;;;17.60;44.60;;;;;;10370327;28;1250;-79
2023/03/04 17:44:28;;;;;;;;;;;17.60;44.60;;;;;;10368355;28;1901;-78
2023/03/04 17:49:24;;;;;;;;;;;17.70;44.50;;;;;;10369180;28;795;-79
2023/03/04 17:54:19;;;;;;;;;;;17.60;44.50;;;;;;10368939;28;819;-79
2023/03/04 17:59:15;;;;;;;;;;;17.60;44.40;;;;;;10368728;28;783;-79
2023/03/04 18:04:10;;;;;;;;;;;17.60;44.50;;;;;;10369378;28;1963;-80
2023/03/04 18:09:05;;;;;;;;;;;17.60;44.70;;;;;;10368374;28;1040;-79
2023/03/04 18:14:01;;;;;;;;;;;17.60;44.80;;;;;;10368234;28;775;-78
2023/03/04 18:18:59;;;;;;;;;;;17.70;45.10;;;;;;10368083;28;948;-79
2023/03/04 18:23:55;;;;;;;;;;;17.70;45.10;;;;;;10367841;28;1910;-79
2023/03/04 18:28:50;;;;;;;;;;;17.60;45.10;;;;;;10367910;28;837;-79
2023/03/04 18:33:46;;;;;;;;;;;17.60;45.20;;;;;;10367836;28;763;-70
2023/03/04 18:38:41;;;;;;;;;;;17.60;45.20;;;;;;10367945;28;1023;-77
2023/03/04 18:43:36;;;;;;;;;;;17.70;45.10;;;;;;10367407;28;1909;-76
2023/03/04 18:48:32;;;;;;;;;;;17.70;45.30;;;;;;10367656;28;819;-76
2023/03/04 18:53:27;;;;;;;;;;;17.80;45.30;;;;;;10367620;28;774;-76
2023/03/04 18:58:23;;;;;;;;;;;17.80;45.20;;;;;;10366032;28;847;-77
2023/03/04 19:03:18;;;;;;;;;;;17.90;45.20;;;;;;10367328;28;1905;-76
2023/03/04 19:08:13;;;;;;;;;;;17.80;45.20;;;;;;10367231;28;885;-77
2023/03/04 19:13:09;;;;;;;;;;;17.90;45.20;;;;;;10366425;28;901;-76
2023/03/04 19:18:04;;;;;;;;;;;17.90;45.20;;;;;;10366320;28;910;-76
2023/03/04 19:22:59;;;;;;;;;;;17.90;45.20;;;;;;10366709;28;1906;-76
2023/03/04 19:27:55;;;;;;;;;;;18.00;45.20;;;;;;10366730;28;880;-77
2023/03/04 19:32:50;;;;;;;;;;;18.00;45.00;;;;;;10365979;28;1581;-87
2023/03/04 19:37:46;;;;;;;;;;;17.90;45.00;;;;;;10367152;28;862;-86
2023/03/04 19:42:41;;;;;;;;;;;17.80;45.20;;;;;;10365649;28;1914;-76
2023/03/04 19:47:36;;;;;;;;;;;17.70;45.10;;;;;;10366407;28;980;-76
2023/03/04 19:52:32;;;;;;;;;;;17.70;45.10;;;;;;10365607;28;865;-77
2023/03/04 19:57:27;;;;;;;;;;;17.70;45.10;;;;;;10365536;28;870;-77
2023/03/04 20:02:23;;;;;;;;;;;17.70;45.00;;;;;;10365405;28;1906;-77
2023/03/04 20:07:18;;;;;;;;;;;17.70;45.10;;;;;;10367114;28;866;-77
2023/03/04 20:12:14;;;;;;;;;;;17.70;45.10;;;;;;10373462;28;1061;-77
2023/03/04 20:17:09;;;;;;;;;;;17.70;45.00;;;;;;10372826;28;953;-76
2023/03/04 20:22:05;;;;;;;;;;;17.80;45.10;;;;;;10372581;28;1975;-77
2023/03/04 20:27:01;;;;;;;;;;;17.70;45.00;;;;;;10372680;28;922;-77
2023/03/04 20:31:57;;;;;;;;;;;17.70;44.90;;;;;;10372287;28;838;-77
2023/03/04 20:36:52;;;;;;;;;;;17.70;45.00;;;;;;10373231;28;865;-77
2023/03/04 20:41:47;;;;;;;;;;;17.80;45.00;;;;;;10372550;28;1909;-77
2023/03/04 20:46:44;;;;;;;;;;;17.70;44.90;;;;;;10372289;28;888;-77
2023/03/04 20:51:40;;;;;;;;;;;17.70;45.00;;;;;;10371540;28;967;-76
2023/03/04 20:56:36;;;;;;;;;;;17.70;45.10;;;;;;10371900;28;821;-77
2023/03/04 21:01:31;;;;;;;;;;;17.70;45.10;;;;;;10371512;28;1909;-77
2023/03/04 21:06:29;;;;;;;;;;;17.70;45.10;;;;;;10370974;28;761;-77
2023/03/04 21:11:25;;;;;;;;;;;17.60;45.10;;;;;;10370734;28;846;-77
2023/03/04 21:16:20;;;;;;;;;;;17.60;45.10;;;;;;10370695;28;1105;-77
2023/03/04 21:21:15;;;;;;;;;;;17.70;45.10;;;;;;10369368;28;1976;-77
2023/03/04 21:26:11;;;;;;;;;;;17.60;45.10;;;;;;10370236;28;921;-77
2023/03/04 21:31:06;;;;;;;;;;;17.60;45.00;;;;;;10369917;28;830;-77
2023/03/04 21:36:02;;;;;;;;;;;17.60;45.10;;;;;;10369758;28;830;-77
2023/03/04 21:40:57;;;;;;;;;;;17.60;45.00;;;;;;10369880;28;1913;-77
2023/03/04 21:45:53;;;;;;;;;;;17.60;45.60;;;;;;10369950;28;863;-77
2023/03/04 21:50:48;;;;;;;;;;;17.60;45.60;;;;;;10369069;28;916;-77
2023/03/04 21:55:44;;;;;;;;;;;17.60;45.00;;;;;;10368968;28;779;-77
2023/03/04 22:00:39;;;;;;;;;;;17.60;45.00;;;;;;10368758;28;1963;-77
2023/03/04 22:05:34;;;;;;;;;;;17.60;45.00;;;;;;10368625;28;851;-77
2023/03/04 22:10:33;;;;;;;;;;;17.60;45.00;;;;;;10368214;28;1004;-77
2023/03/04 22:15:28;;;;;;;;;;;17.60;45.00;;;;;;10368217;28;894;-77
2023/03/04 22:20:24;;;;;;;;;;;17.60;45.00;;;;;;10368614;28;1911;-77
2023/03/04 22:25:19;;;;;;;;;;;17.50;45.00;;;;;;10368515;28;897;-77
2023/03/04 22:30:16;;;;;;;;;;;17.60;45.00;;;;;;10367600;28;966;-77
2023/03/04 22:35:12;;;;;;;;;;;17.60;45.00;;;;;;10367603;28;885;-77
2023/03/04 22:40:07;;;;;;;;;;;17.60;45.10;;;;;;10368510;28;1751;-77
2023/03/04 22:45:02;;;;;;;;;;;17.60;45.00;;;;;;10367173;28;1910;-77
2023/03/04 22:49:58;;;;;;;;;;;17.60;45.00;;;;;;10366989;28;972;-77
2023/03/04 22:54:53;;;;;;;;;;;17.60;45.00;;;;;;10367517;28;874;-77
2023/03/04 22:59:49;;;;;;;;;;;17.50;45.00;;;;;;10366747;28;835;-77
2023/03/04 23:04:44;;;;;;;;;;;17.60;45.00;;;;;;10366573;28;1902;-77
2023/03/04 23:09:39;;;;;;;;;;;17.60;45.00;;;;;;10366997;28;958;-77
2023/03/04 23:14:35;;;;;;;;;;;17.50;45.00;;;;;;10367018;28;859;-77
2023/03/04 23:19:30;;;;;;;;;;;17.50;44.90;;;;;;10366850;28;938;-77
2023/03/04 23:24:25;;;;;;;;;;;17.60;44.90;;;;;;10366124;28;1949;-77
2023/03/04 23:29:21;;;;;;;;;;;17.50;44.90;;;;;;10366970;28;936;-77
2023/03/04 23:34:16;;;;;;;;;;;17.50;44.90;;;;;;10366578;28;846;-77
2023/03/04 23:39:12;;;;;;;;;;;17.60;44.90;;;;;;10365811;28;1169;-77
2023/03/04 23:44:07;;;;;;;;;;;17.60;44.90;;;;;;10371352;28;1967;-77
2023/03/04 23:49:02;;;;;;;;;;;17.50;45.40;;;;;;10373987;28;867;-77
2023/03/04 23:53:58;;;;;;;;;;;17.50;44.80;;;;;;10373863;28;796;-77
2023/03/04 23:58:53;;;;;;;;;;;17.60;44.80;;;;;;10373709;28;887;-77
